Aviation Digital Data Service (ADDS)

Output produced by METARs form (2050 UTC 24 June 2017)
found at http://www.aviationweather.gov/adds/metars/
 
OKBK 242000Z 34014KT 4500 -HZ SKC 37/04 Q1001 NOSIG
TAF OKBK 241645Z 2418/2524 35010G20KT 6000 SKC 
     TEMPO 2418/2423 3000 BLDU